createdAt,value
2022-09-04T00:00:16.480Z,14.90
2022-09-04T00:03:01.716Z,14.80
2022-09-04T00:05:35.424Z,14.70
2022-09-04T00:08:03.060Z,14.50
2022-09-04T00:11:01.831Z,14.60
2022-09-04T00:13:41.969Z,14.60
2022-09-04T00:16:17.292Z,14.60
2022-09-04T00:19:09.621Z,14.50
2022-09-04T00:21:44.834Z,14.40
2022-09-04T00:24:16.504Z,14.30
2022-09-04T00:26:54.513Z,14.30
2022-09-04T00:29:51.038Z,14.30
2022-09-04T00:32:21.701Z,14.40
2022-09-04T00:35:07.547Z,14.30
2022-09-04T00:38:08.396Z,14.20
2022-09-04T00:40:55.716Z,14.20
2022-09-04T00:43:35.257Z,14.10
2022-09-04T00:46:40.203Z,14.10
2022-09-04T00:49:29.379Z,14.10
2022-09-04T00:52:18.773Z,14.20
2022-09-04T00:55:01.765Z,14.20
2022-09-04T00:57:34.040Z,14.20
2022-09-04T01:00:16.644Z,14.20
2022-09-04T01:03:12.022Z,14.10
2022-09-04T01:06:00.772Z,14.00
2022-09-04T01:09:06.065Z,14.10
2022-09-04T01:11:58.273Z,14.10
2022-09-04T01:15:01.063Z,14.20
2022-09-04T01:17:49.919Z,14.00
2022-09-04T01:20:31.365Z,13.90
2022-09-04T01:23:10.620Z,14.10
2022-09-04T01:26:19.451Z,14.00
2022-09-04T01:29:15.990Z,14.10
2022-09-04T01:32:15.382Z,14.10
2022-09-04T01:34:53.944Z,14.30
2022-09-04T01:37:51.926Z,14.30
2022-09-04T01:40:35.810Z,14.00
2022-09-04T01:43:08.152Z,13.80
2022-09-04T01:46:09.617Z,13.70
2022-09-04T01:48:37.331Z,13.70
2022-09-04T01:51:28.617Z,13.70
2022-09-04T01:54:16.496Z,13.60
2022-09-04T01:57:14.276Z,13.40
2022-09-04T02:00:23.250Z,13.40
2022-09-04T02:03:10.341Z,13.50
2022-09-04T02:05:56.513Z,13.50
2022-09-04T02:08:27.037Z,13.50
2022-09-04T02:11:19.270Z,13.50
2022-09-04T02:14:17.831Z,13.50
2022-09-04T02:17:08.935Z,13.60
2022-09-04T02:20:07.520Z,13.50
2022-09-04T02:22:55.340Z,13.50
2022-09-04T02:25:38.636Z,13.30
2022-09-04T02:28:14.996Z,13.30
2022-09-04T02:30:54.443Z,13.30
2022-09-04T02:33:40.807Z,13.10
2022-09-04T02:36:11.307Z,12.80
2022-09-04T02:38:54.681Z,12.70
2022-09-04T02:41:51.128Z,12.50
2022-09-04T02:44:50.217Z,12.50
2022-09-04T02:47:36.878Z,12.60
2022-09-04T02:50:21.351Z,12.60
2022-09-04T02:53:16.714Z,12.60
2022-09-04T02:56:10.835Z,12.70
2022-09-04T02:59:17.489Z,12.70
2022-09-04T03:01:57.610Z,12.70
2022-09-04T03:04:50.809Z,12.60
2022-09-04T03:07:34.971Z,12.50
2022-09-04T03:10:24.749Z,12.40
2022-09-04T03:13:04.114Z,12.40
2022-09-04T03:16:08.683Z,12.60
2022-09-04T03:19:02.101Z,12.60
2022-09-04T03:21:42.145Z,12.70
2022-09-04T03:24:14.187Z,12.60
2022-09-04T03:27:05.281Z,12.50
2022-09-04T03:29:36.137Z,12.40
2022-09-04T03:32:20.936Z,12.50
2022-09-04T03:34:56.130Z,12.60
2022-09-04T03:37:32.921Z,12.60
2022-09-04T03:40:09.486Z,12.50
2022-09-04T03:43:12.634Z,12.40
2022-09-04T03:46:14.311Z,12.30
2022-09-04T03:48:44.836Z,12.40
2022-09-04T03:51:26.973Z,12.40
2022-09-04T03:54:06.753Z,12.30
2022-09-04T03:56:58.835Z,12.20
2022-09-04T03:59:51.162Z,12.20
2022-09-04T04:02:46.057Z,12.20
2022-09-04T04:05:37.949Z,12.20
2022-09-04T04:08:14.422Z,12.20
2022-09-04T04:10:54.054Z,12.20
2022-09-04T04:13:21.827Z,12.20
2022-09-04T04:16:17.005Z,12.20
2022-09-04T04:19:17.272Z,12.20
2022-09-04T04:22:05.197Z,12.20
2022-09-04T04:25:09.640Z,12.30
2022-09-04T04:27:46.067Z,12.30
2022-09-04T04:30:17.780Z,12.20
2022-09-04T04:33:08.568Z,12.30
2022-09-04T04:35:48.371Z,12.40
2022-09-04T04:38:27.890Z,12.50
2022-09-04T04:40:55.497Z,12.60
2022-09-04T04:43:41.026Z,12.70
2022-09-04T04:46:29.227Z,12.60
2022-09-04T04:49:04.457Z,12.40
2022-09-04T04:52:19.747Z,12.40
2022-09-04T04:55:06.446Z,12.40
2022-09-04T04:57:38.567Z,12.50
2022-09-04T05:00:27.544Z,12.40
2022-09-04T05:03:04.469Z,12.40
2022-09-04T05:06:03.399Z,12.40
2022-09-04T05:08:36.873Z,12.30
2022-09-04T05:11:22.773Z,12.40
2022-09-04T05:14:22.156Z,12.40
2022-09-04T05:17:17.495Z,12.50
2022-09-04T05:19:52.561Z,12.40
2022-09-04T05:22:34.775Z,12.40
2022-09-04T05:25:17.527Z,12.50
2022-09-04T05:28:10.299Z,12.60
2022-09-04T05:30:44.294Z,12.80
2022-09-04T05:33:30.534Z,12.90
2022-09-04T05:36:13.823Z,13.00
2022-09-04T05:38:44.562Z,13.10
2022-09-04T05:41:39.488Z,13.10
2022-09-04T05:44:31.161Z,13.20
2022-09-04T05:47:32.719Z,13.30
2022-09-04T05:50:27.954Z,13.40
2022-09-04T05:53:26.507Z,13.40
2022-09-04T05:56:02.991Z,13.30
2022-09-04T05:58:54.590Z,13.10
2022-09-04T06:01:52.154Z,13.20
2022-09-04T06:04:50.996Z,13.40
2022-09-04T06:07:37.585Z,13.30
2022-09-04T06:10:14.467Z,13.40
2022-09-04T06:13:14.373Z,13.60
2022-09-04T06:16:12.932Z,13.60
2022-09-04T06:19:19.968Z,13.70
2022-09-04T06:22:04.799Z,13.70
2022-09-04T06:24:57.584Z,13.80
2022-09-04T06:27:52.911Z,13.80
2022-09-04T06:30:20.920Z,13.80
2022-09-04T06:32:54.683Z,13.70
2022-09-04T06:35:28.603Z,13.50
2022-09-04T06:38:11.750Z,13.60
2022-09-04T06:41:11.981Z,13.60
2022-09-04T06:44:02.241Z,13.50
2022-09-04T06:46:33.283Z,13.70
2022-09-04T06:49:44.717Z,13.90
2022-09-04T06:52:25.199Z,13.80
2022-09-04T06:55:00.116Z,13.90
2022-09-04T06:57:58.948Z,13.80
2022-09-04T07:00:44.042Z,13.90
2022-09-04T07:03:25.105Z,13.90
2022-09-04T07:06:11.424Z,13.90
2022-09-04T07:09:07.214Z,13.90
2022-09-04T07:11:38.020Z,14.10
2022-09-04T07:14:33.933Z,14.30
2022-09-04T07:17:33.882Z,14.50
2022-09-04T07:20:22.154Z,14.50
2022-09-04T07:23:12.117Z,14.60
2022-09-04T07:26:00.738Z,14.50
2022-09-04T07:29:06.260Z,14.40
2022-09-04T07:31:47.100Z,14.50
2022-09-04T07:34:46.007Z,14.70
2022-09-04T07:37:32.184Z,14.70
2022-09-04T07:40:53.181Z,14.80
2022-09-04T07:44:03.854Z,15.10
2022-09-04T07:46:40.520Z,15.30
2022-09-04T07:49:26.580Z,15.40
2022-09-04T07:51:57.873Z,15.50
2022-09-04T07:54:50.709Z,15.40
2022-09-04T07:57:44.838Z,15.20
2022-09-04T08:00:15.326Z,15.00
2022-09-04T08:02:55.054Z,15.00
2022-09-04T08:05:55.609Z,14.90
2022-09-04T08:08:45.039Z,14.90
2022-09-04T08:11:53.987Z,15.10
2022-09-04T08:14:54.192Z,15.10
2022-09-04T08:17:43.375Z,15.20
2022-09-04T08:20:46.416Z,15.20
2022-09-04T08:24:05.383Z,15.40
2022-09-04T08:27:09.477Z,15.60
2022-09-04T08:29:47.735Z,15.60
2022-09-04T08:32:37.895Z,15.70
2022-09-04T08:35:25.951Z,15.80
2022-09-04T08:37:53.976Z,16.00
2022-09-04T08:41:03.334Z,16.10
2022-09-04T08:43:48.042Z,16.10
2022-09-04T08:46:49.482Z,16.20
2022-09-04T08:49:57.850Z,16.30
2022-09-04T08:52:54.690Z,16.40
2022-09-04T08:55:47.109Z,16.60
2022-09-04T08:58:45.745Z,16.60
2022-09-04T09:01:24.466Z,16.60
2022-09-04T09:04:26.705Z,16.80
2022-09-04T09:07:09.459Z,16.90
2022-09-04T09:10:02.184Z,16.90
2022-09-04T09:12:45.362Z,17.20
2022-09-04T09:15:49.445Z,17.30
2022-09-04T09:18:43.872Z,17.40
2022-09-04T09:21:33.599Z,17.40
2022-09-04T09:25:03.571Z,17.60
2022-09-04T09:28:41.547Z,17.70
2022-09-04T09:31:50.395Z,17.90
2022-09-04T09:34:43.183Z,18.10
2022-09-04T09:37:39.295Z,18.40
2022-09-04T09:40:44.626Z,18.50
2022-09-04T09:43:27.069Z,18.80
2022-09-04T09:46:29.223Z,19.10
2022-09-04T09:49:24.615Z,19.30
2022-09-04T09:52:30.299Z,19.60
2022-09-04T09:59:04.071Z,20.20
2022-09-04T10:02:10.314Z,20.60
2022-09-04T10:05:47.462Z,20.90
2022-09-04T10:10:00.742Z,21.00
2022-09-04T10:13:15.371Z,21.30
2022-09-04T10:16:25.786Z,21.50
2022-09-04T10:19:46.935Z,21.70
2022-09-04T10:23:07.060Z,21.20
2022-09-04T10:26:31.920Z,20.80
2022-09-04T10:29:39.868Z,20.60
2022-09-04T10:32:48.975Z,20.60
2022-09-04T10:35:36.984Z,20.70
2022-09-04T10:41:52.591Z,21.00
2022-09-04T10:48:49.967Z,21.00
2022-09-04T10:52:01.760Z,21.00
2022-09-04T10:54:51.399Z,21.00
2022-09-04T10:58:01.263Z,21.60
2022-09-04T11:00:53.557Z,22.40
2022-09-04T11:03:45.991Z,22.30
2022-09-04T11:06:49.642Z,22.10
2022-09-04T11:09:23.447Z,21.80
2022-09-04T11:12:24.146Z,21.60
2022-09-04T11:15:59.798Z,21.30
2022-09-04T11:18:51.520Z,21.20
2022-09-04T11:25:19.186Z,21.30
2022-09-04T11:28:05.830Z,21.40
2022-09-04T11:30:47.889Z,21.30
2022-09-04T11:33:48.989Z,21.30
2022-09-04T11:36:39.591Z,21.40
2022-09-04T11:39:38.378Z,21.40
2022-09-04T11:42:41.446Z,21.50
2022-09-04T11:45:41.543Z,21.80
2022-09-04T11:48:44.901Z,22.30
2022-09-04T11:51:21.640Z,22.30
2022-09-04T11:54:17.726Z,22.20
2022-09-04T11:56:54.468Z,22.20
2022-09-04T11:59:34.677Z,22.10
2022-09-04T12:02:15.562Z,22.50
2022-09-04T12:05:01.823Z,22.70
2022-09-04T12:07:55.418Z,23.00
2022-09-04T12:10:45.733Z,23.30
2022-09-04T12:13:30.479Z,24.40
2022-09-04T12:16:18.037Z,23.90
2022-09-04T12:19:05.382Z,23.20
2022-09-04T12:21:55.722Z,23.00
2022-09-04T12:24:40.063Z,22.70
2022-09-04T12:27:23.054Z,22.30
2022-09-04T12:30:25.725Z,21.90
2022-09-04T12:33:08.525Z,21.70
2022-09-04T12:36:07.510Z,21.40
2022-09-04T12:38:47.408Z,21.20
2022-09-04T12:41:24.448Z,21.10
2022-09-04T12:43:52.104Z,21.00
2022-09-04T12:46:53.007Z,20.80
2022-09-04T12:49:42.531Z,20.70
2022-09-04T12:52:24.848Z,20.70
2022-09-04T12:55:12.911Z,20.60
2022-09-04T12:58:07.470Z,20.90
2022-09-04T13:00:53.606Z,21.00
2022-09-04T13:03:27.554Z,21.40
2022-09-04T13:06:15.409Z,21.40
2022-09-04T13:08:58.087Z,21.40
2022-09-04T13:11:50.898Z,21.30
2022-09-04T13:14:48.089Z,21.10
2022-09-04T13:17:43.648Z,21.10
2022-09-04T13:20:40.330Z,21.10
2022-09-04T13:23:28.632Z,20.90
2022-09-04T13:26:37.368Z,20.90
2022-09-04T13:29:42.833Z,20.90
2022-09-04T13:32:55.402Z,20.90
2022-09-04T13:35:48.001Z,20.90
2022-09-04T13:38:36.122Z,21.00
2022-09-04T13:41:34.340Z,20.90
2022-09-04T13:44:26.145Z,20.90
2022-09-04T13:47:10.059Z,20.90
2022-09-04T13:49:56.601Z,21.10
2022-09-04T13:52:36.790Z,21.00
2022-09-04T13:55:21.265Z,21.10
2022-09-04T13:58:10.632Z,21.20
2022-09-04T14:00:45.987Z,21.20
2022-09-04T14:03:37.075Z,21.20
2022-09-04T14:06:18.431Z,21.20
2022-09-04T14:09:18.293Z,21.30
2022-09-04T14:12:20.733Z,21.40
2022-09-04T14:16:12.007Z,21.60
2022-09-04T14:20:21.824Z,21.80
2022-09-04T14:23:31.511Z,21.70
2022-09-04T14:26:38.454Z,21.50
2022-09-04T14:29:41.700Z,21.50
2022-09-04T14:33:37.137Z,21.50
2022-09-04T14:40:40.823Z,21.60
2022-09-04T14:43:57.718Z,21.70
2022-09-04T14:46:59.321Z,21.40
2022-09-04T14:50:15.834Z,21.40
2022-09-04T14:53:16.778Z,21.20
2022-09-04T14:59:34.813Z,21.40
2022-09-04T15:03:32.417Z,21.40
2022-09-04T15:07:10.266Z,21.30
2022-09-04T15:10:42.066Z,21.30
2022-09-04T15:14:05.895Z,21.20
2022-09-04T15:16:54.596Z,21.30
2022-09-04T15:20:01.824Z,21.40
2022-09-04T15:22:57.660Z,21.50
2022-09-04T15:25:59.327Z,21.50
2022-09-04T15:28:42.499Z,21.40
2022-09-04T15:31:35.497Z,21.30
2022-09-04T15:34:10.200Z,21.30
2022-09-04T15:36:39.350Z,21.20
2022-09-04T15:39:18.463Z,21.20
2022-09-04T15:41:52.640Z,21.20
2022-09-04T15:44:39.066Z,21.00
2022-09-04T15:47:41.299Z,20.60
2022-09-04T15:50:32.062Z,20.30
2022-09-04T15:53:18.423Z,20.20
2022-09-04T15:55:50.710Z,20.10
2022-09-04T15:58:27.121Z,20.00
2022-09-04T16:01:10.371Z,19.90
2022-09-04T16:04:14.802Z,19.90
2022-09-04T16:06:54.701Z,19.70
2022-09-04T16:09:28.173Z,19.60
2022-09-04T16:13:09.165Z,19.50
2022-09-04T16:16:16.777Z,19.30
2022-09-04T16:28:56.829Z,18.50
2022-09-04T16:35:12.766Z,18.30
2022-09-04T16:38:24.196Z,18.30
2022-09-04T16:41:49.960Z,18.20
2022-09-04T16:44:45.312Z,18.10
2022-09-04T16:48:15.785Z,18.00
2022-09-04T16:51:40.901Z,18.00
2022-09-04T16:57:24.086Z,17.90
2022-09-04T17:00:19.873Z,17.90
2022-09-04T17:03:19.154Z,17.90
2022-09-04T17:06:16.318Z,17.90
2022-09-04T17:09:15.473Z,17.80
2022-09-04T17:13:17.219Z,17.80
2022-09-04T17:16:43.281Z,17.70
2022-09-04T17:20:14.504Z,17.70
2022-09-04T17:33:21.253Z,17.50
2022-09-04T17:40:57.003Z,17.40
2022-09-04T17:41:31.383Z,17.30
2022-09-04T17:43:32.488Z,17.20
2022-09-04T17:46:38.489Z,17.20
2022-09-04T17:53:34.148Z,17.00
2022-09-04T17:56:44.250Z,16.90
2022-09-04T17:59:46.527Z,16.90
2022-09-04T18:02:47.620Z,16.70
2022-09-04T18:05:54.046Z,16.50
2022-09-04T18:09:29.065Z,16.50
2022-09-04T18:12:28.768Z,16.20
2022-09-04T18:15:52.304Z,16.00
2022-09-04T18:18:57.285Z,16.00
2022-09-04T18:22:26.937Z,15.80
2022-09-04T18:25:30.725Z,15.70
2022-09-04T18:28:29.469Z,15.70
2022-09-04T18:37:15.825Z,15.40
2022-09-04T18:37:17.805Z,15.50
2022-09-04T18:37:53.243Z,15.40
2022-09-04T18:43:35.964Z,15.30
2022-09-04T18:50:40.778Z,15.30
2022-09-04T18:50:47.271Z,15.00
2022-09-04T18:51:55.056Z,15.00
2022-09-04T18:54:55.305Z,15.00
2022-09-04T19:06:09.148Z,14.50
2022-09-04T19:09:01.941Z,14.50
2022-09-04T19:12:14.887Z,14.60
2022-09-04T19:14:48.327Z,14.50
2022-09-04T19:17:44.601Z,14.50
2022-09-04T19:24:37.241Z,14.30
2022-09-04T19:28:54.512Z,14.20
2022-09-04T19:32:10.188Z,14.20
2022-09-04T19:35:21.078Z,14.20
2022-09-04T19:45:02.377Z,14.20
2022-09-04T19:46:04.666Z,14.20
2022-09-04T19:46:15.860Z,14.10
2022-09-04T19:57:32.338Z,13.90
2022-09-04T20:00:42.966Z,13.70
2022-09-04T20:03:36.372Z,13.80
2022-09-04T20:06:42.997Z,13.80
2022-09-04T20:09:36.842Z,13.80
2022-09-04T20:12:29.555Z,13.80
2022-09-04T20:15:19.238Z,13.70
2022-09-04T20:18:24.409Z,13.70
2022-09-04T20:21:10.684Z,13.70
2022-09-04T20:24:22.366Z,13.50
2022-09-04T20:27:06.981Z,13.50
2022-09-04T20:29:54.837Z,13.40
2022-09-04T20:32:55.917Z,13.30
2022-09-04T20:40:01.917Z,13.40
2022-09-04T20:42:56.961Z,13.30
2022-09-04T20:47:51.846Z,13.40
2022-09-04T20:52:42.576Z,13.30
2022-09-04T20:52:53.160Z,13.30
2022-09-04T20:56:10.676Z,13.20
2022-09-04T21:03:06.622Z,13.20
2022-09-04T21:03:18.413Z,13.20
2022-09-04T21:06:14.233Z,13.30
2022-09-04T21:09:14.915Z,13.20
2022-09-04T21:11:55.318Z,13.10
2022-09-04T21:14:45.763Z,13.00
2022-09-04T21:17:40.272Z,13.00
2022-09-04T21:20:59.987Z,13.10
2022-09-04T21:24:03.159Z,13.20
2022-09-04T21:27:10.838Z,13.20
2022-09-04T21:29:42.743Z,13.10
2022-09-04T21:32:22.264Z,12.90
2022-09-04T21:35:34.398Z,12.90
2022-09-04T21:39:06.784Z,13.00
2022-09-04T21:42:01.628Z,13.00
2022-09-04T21:45:31.188Z,13.00
2022-09-04T21:48:34.471Z,13.00
2022-09-04T21:51:51.353Z,13.00
2022-09-04T21:57:02.761Z,13.00
2022-09-04T22:02:28.698Z,12.90
2022-09-04T22:02:43.461Z,13.00
2022-09-04T22:04:33.868Z,13.00
2022-09-04T22:10:26.182Z,12.90
2022-09-04T22:13:38.499Z,12.70
2022-09-04T22:14:33.895Z,12.50
2022-09-04T22:17:30.517Z,12.60
2022-09-04T22:20:25.650Z,12.70
2022-09-04T22:23:30.484Z,12.60
2022-09-04T22:26:54.994Z,12.60
2022-09-04T22:29:55.609Z,12.60
2022-09-04T22:32:51.066Z,12.50
2022-09-04T22:35:58.390Z,12.60
2022-09-04T22:39:40.438Z,12.60
2022-09-04T22:42:49.373Z,12.50
2022-09-04T22:45:58.632Z,12.50
2022-09-04T22:48:36.000Z,12.50
2022-09-04T22:51:26.628Z,12.30
2022-09-04T22:54:26.642Z,12.30
2022-09-04T23:00:11.293Z,12.40
2022-09-04T23:03:36.727Z,12.40
2022-09-04T23:09:24.862Z,12.30
2022-09-04T23:13:44.395Z,12.40
2022-09-04T23:14:00.480Z,12.40
2022-09-04T23:17:04.247Z,12.50
2022-09-04T23:26:39.156Z,12.50
2022-09-04T23:26:42.692Z,12.50
2022-09-04T23:30:25.686Z,12.30
2022-09-04T23:33:31.877Z,12.20
2022-09-04T23:36:33.339Z,12.10
2022-09-04T23:39:17.152Z,12.10
2022-09-04T23:42:12.928Z,12.10
2022-09-04T23:45:19.845Z,12.20
2022-09-04T23:48:07.980Z,12.20
2022-09-04T23:51:02.111Z,12.10
2022-09-04T23:54:00.855Z,12.10
2022-09-04T23:57:03.290Z,12.10
